sensor_id;sensor_type;location;lat;lon;timestamp;P1;durP1;ratioP1;P2;durP2;ratioP2
823;SDS011;373;49.342;8.146;2023-02-03T00:01:58;4.15;;;3.10;;
823;SDS011;373;49.342;8.146;2023-02-03T00:04:28;4.13;;;3.00;;
823;SDS011;373;49.342;8.146;2023-02-03T00:06:55;4.82;;;3.30;;
823;SDS011;373;49.342;8.146;2023-02-03T00:09:22;4.20;;;2.80;;
823;SDS011;373;49.342;8.146;2023-02-03T00:11:49;2.92;;;2.33;;
823;SDS011;373;49.342;8.146;2023-02-03T00:14:16;3.38;;;2.63;;
823;SDS011;373;49.342;8.146;2023-02-03T00:16:43;3.17;;;2.70;;
823;SDS011;373;49.342;8.146;2023-02-03T00:19:12;3.72;;;2.75;;
823;SDS011;373;49.342;8.146;2023-02-03T00:21:40;3.88;;;2.47;;
823;SDS011;373;49.342;8.146;2023-02-03T00:24:08;7.15;;;3.17;;
823;SDS011;373;49.342;8.146;2023-02-03T00:26:39;3.30;;;3.00;;
823;SDS011;373;49.342;8.146;2023-02-03T00:29:07;3.45;;;2.60;;
823;SDS011;373;49.342;8.146;2023-02-03T00:31:35;3.72;;;2.75;;
823;SDS011;373;49.342;8.146;2023-02-03T00:34:04;3.30;;;2.60;;
823;SDS011;373;49.342;8.146;2023-02-03T00:36:33;3.58;;;2.60;;
823;SDS011;373;49.342;8.146;2023-02-03T00:39:02;5.35;;;2.47;;
823;SDS011;373;49.342;8.146;2023-02-03T00:41:29;2.83;;;2.55;;
823;SDS011;373;49.342;8.146;2023-02-03T00:43:57;4.13;;;2.70;;
823;SDS011;373;49.342;8.146;2023-02-03T00:46:24;2.38;;;2.08;;
823;SDS011;373;49.342;8.146;2023-02-03T00:48:52;2.40;;;2.10;;
823;SDS011;373;49.342;8.146;2023-02-03T00:51:19;2.55;;;2.20;;
823;SDS011;373;49.342;8.146;2023-02-03T00:53:48;2.28;;;2.00;;
823;SDS011;373;49.342;8.146;2023-02-03T00:56:15;5.13;;;2.33;;
823;SDS011;373;49.342;8.146;2023-02-03T00:58:43;3.45;;;1.98;;
823;SDS011;373;49.342;8.146;2023-02-03T01:01:10;1.92;;;1.58;;
823;SDS011;373;49.342;8.146;2023-02-03T01:03:39;2.17;;;1.77;;
823;SDS011;373;49.342;8.146;2023-02-03T01:06:12;2.72;;;1.90;;
823;SDS011;373;49.342;8.146;2023-02-03T01:08:41;1.92;;;1.70;;
823;SDS011;373;49.342;8.146;2023-02-03T01:11:10;2.30;;;1.70;;
823;SDS011;373;49.342;8.146;2023-02-03T01:13:39;1.95;;;1.67;;
823;SDS011;373;49.342;8.146;2023-02-03T01:16:07;2.00;;;1.55;;
823;SDS011;373;49.342;8.146;2023-02-03T01:18:35;3.00;;;1.52;;
823;SDS011;373;49.342;8.146;2023-02-03T01:21:06;2.45;;;1.40;;
823;SDS011;373;49.342;8.146;2023-02-03T01:23:35;2.53;;;1.63;;
823;SDS011;373;49.342;8.146;2023-02-03T01:26:07;1.40;;;1.30;;
823;SDS011;373;49.342;8.146;2023-02-03T01:28:49;3.20;;;2.00;;
823;SDS011;373;49.342;8.146;2023-02-03T01:31:18;1.90;;;1.38;;
823;SDS011;373;49.342;8.146;2023-02-03T01:33:47;3.45;;;1.40;;
823;SDS011;373;49.342;8.146;2023-02-03T01:36:14;2.65;;;1.17;;
823;SDS011;373;49.342;8.146;2023-02-03T01:38:43;2.00;;;1.30;;
823;SDS011;373;49.342;8.146;2023-02-03T01:41:11;1.83;;;1.73;;
823;SDS011;373;49.342;8.146;2023-02-03T01:43:42;2.55;;;1.05;;
823;SDS011;373;49.342;8.146;2023-02-03T01:46:15;1.67;;;1.58;;
823;SDS011;373;49.342;8.146;2023-02-03T01:48:50;1.75;;;1.55;;
823;SDS011;373;49.342;8.146;2023-02-03T01:51:18;1.30;;;1.20;;
823;SDS011;373;49.342;8.146;2023-02-03T01:53:46;2.45;;;1.42;;
823;SDS011;373;49.342;8.146;2023-02-03T01:56:14;2.63;;;1.42;;
823;SDS011;373;49.342;8.146;2023-02-03T01:58:44;1.13;;;1.02;;
823;SDS011;373;49.342;8.146;2023-02-03T02:01:13;0.98;;;0.98;;
823;SDS011;373;49.342;8.146;2023-02-03T02:03:41;1.35;;;1.25;;
823;SDS011;373;49.342;8.146;2023-02-03T02:06:12;1.38;;;1.20;;
823;SDS011;373;49.342;8.146;2023-02-03T02:08:40;2.90;;;1.30;;
823;SDS011;373;49.342;8.146;2023-02-03T02:11:10;1.50;;;1.40;;
823;SDS011;373;49.342;8.146;2023-02-03T02:13:39;0.95;;;0.95;;
823;SDS011;373;49.342;8.146;2023-02-03T02:16:11;1.10;;;1.05;;
823;SDS011;373;49.342;8.146;2023-02-03T02:21:49;1.25;;;1.15;;
823;SDS011;373;49.342;8.146;2023-02-03T02:27:39;2.03;;;1.30;;
823;SDS011;373;49.342;8.146;2023-02-03T02:30:29;0.95;;;0.95;;
823;SDS011;373;49.342;8.146;2023-02-03T02:33:10;1.10;;;1.00;;
823;SDS011;373;49.342;8.146;2023-02-03T02:35:50;1.27;;;0.80;;
823;SDS011;373;49.342;8.146;2023-02-03T02:38:25;1.15;;;1.02;;
823;SDS011;373;49.342;8.146;2023-02-03T02:41:07;0.80;;;0.80;;
823;SDS011;373;49.342;8.146;2023-02-03T02:43:39;1.20;;;1.10;;
823;SDS011;373;49.342;8.146;2023-02-03T02:46:09;0.93;;;0.85;;
823;SDS011;373;49.342;8.146;2023-02-03T02:48:45;0.80;;;0.80;;
823;SDS011;373;49.342;8.146;2023-02-03T02:51:17;2.13;;;1.20;;
823;SDS011;373;49.342;8.146;2023-02-03T02:53:48;1.10;;;1.00;;
823;SDS011;373;49.342;8.146;2023-02-03T02:56:19;1.02;;;1.00;;
823;SDS011;373;49.342;8.146;2023-02-03T02:58:49;1.55;;;1.20;;
823;SDS011;373;49.342;8.146;2023-02-03T03:01:22;1.65;;;1.40;;
823;SDS011;373;49.342;8.146;2023-02-03T03:03:50;1.63;;;1.52;;
823;SDS011;373;49.342;8.146;2023-02-03T03:06:18;2.00;;;1.40;;
823;SDS011;373;49.342;8.146;2023-02-03T03:08:53;1.20;;;1.10;;
823;SDS011;373;49.342;8.146;2023-02-03T03:11:25;2.65;;;1.45;;
823;SDS011;373;49.342;8.146;2023-02-03T03:13:56;2.22;;;1.65;;
823;SDS011;373;49.342;8.146;2023-02-03T03:16:26;1.75;;;1.30;;
823;SDS011;373;49.342;8.146;2023-02-03T03:18:58;2.25;;;1.50;;
823;SDS011;373;49.342;8.146;2023-02-03T03:21:28;2.00;;;1.73;;
823;SDS011;373;49.342;8.146;2023-02-03T03:24:00;1.92;;;1.60;;
823;SDS011;373;49.342;8.146;2023-02-03T03:26:37;3.78;;;1.92;;
823;SDS011;373;49.342;8.146;2023-02-03T03:29:10;1.80;;;1.70;;
823;SDS011;373;49.342;8.146;2023-02-03T03:31:40;2.88;;;1.73;;
823;SDS011;373;49.342;8.146;2023-02-03T03:34:09;2.22;;;2.03;;
823;SDS011;373;49.342;8.146;2023-02-03T03:36:39;2.92;;;2.25;;
823;SDS011;373;49.342;8.146;2023-02-03T03:39:12;3.33;;;2.67;;
823;SDS011;373;49.342;8.146;2023-02-03T03:41:48;2.35;;;2.20;;
823;SDS011;373;49.342;8.146;2023-02-03T03:44:21;3.03;;;2.58;;
823;SDS011;373;49.342;8.146;2023-02-03T03:46:55;3.70;;;2.33;;
823;SDS011;373;49.342;8.146;2023-02-03T03:49:32;2.90;;;2.40;;
823;SDS011;373;49.342;8.146;2023-02-03T03:52:01;2.45;;;2.25;;
823;SDS011;373;49.342;8.146;2023-02-03T03:54:33;2.35;;;2.15;;
823;SDS011;373;49.342;8.146;2023-02-03T03:57:04;2.70;;;2.42;;
823;SDS011;373;49.342;8.146;2023-02-03T03:59:40;2.53;;;2.33;;
823;SDS011;373;49.342;8.146;2023-02-03T04:02:11;2.63;;;2.42;;
823;SDS011;373;49.342;8.146;2023-02-03T04:04:40;2.30;;;2.00;;
823;SDS011;373;49.342;8.146;2023-02-03T04:07:11;3.70;;;2.58;;
823;SDS011;373;49.342;8.146;2023-02-03T04:09:38;2.97;;;2.45;;
823;SDS011;373;49.342;8.146;2023-02-03T04:12:08;2.80;;;2.50;;
823;SDS011;373;49.342;8.146;2023-02-03T04:14:41;2.80;;;2.20;;
823;SDS011;373;49.342;8.146;2023-02-03T04:17:11;3.90;;;2.22;;
823;SDS011;373;49.342;8.146;2023-02-03T04:19:38;5.45;;;2.75;;
823;SDS011;373;49.342;8.146;2023-02-03T04:22:06;2.58;;;1.95;;
823;SDS011;373;49.342;8.146;2023-02-03T04:24:33;2.67;;;2.05;;
823;SDS011;373;49.342;8.146;2023-02-03T04:27:00;3.03;;;2.47;;
823;SDS011;373;49.342;8.146;2023-02-03T04:29:27;2.47;;;2.13;;
823;SDS011;373;49.342;8.146;2023-02-03T04:31:54;3.97;;;2.47;;
823;SDS011;373;49.342;8.146;2023-02-03T04:34:21;2.75;;;2.40;;
823;SDS011;373;49.342;8.146;2023-02-03T04:36:48;2.17;;;1.98;;
823;SDS011;373;49.342;8.146;2023-02-03T04:39:16;3.20;;;2.53;;
823;SDS011;373;49.342;8.146;2023-02-03T04:41:43;3.00;;;2.70;;
823;SDS011;373;49.342;8.146;2023-02-03T04:44:10;2.53;;;2.28;;
823;SDS011;373;49.342;8.146;2023-02-03T04:46:37;4.30;;;2.40;;
823;SDS011;373;49.342;8.146;2023-02-03T04:49:04;2.78;;;2.47;;
823;SDS011;373;49.342;8.146;2023-02-03T04:51:31;2.50;;;2.30;;
823;SDS011;373;49.342;8.146;2023-02-03T04:53:58;4.70;;;2.60;;
823;SDS011;373;49.342;8.146;2023-02-03T04:56:27;3.13;;;2.45;;
823;SDS011;373;49.342;8.146;2023-02-03T04:58:54;2.40;;;2.20;;
823;SDS011;373;49.342;8.146;2023-02-03T05:01:21;2.95;;;2.13;;
823;SDS011;373;49.342;8.146;2023-02-03T05:03:48;3.60;;;2.08;;
823;SDS011;373;49.342;8.146;2023-02-03T05:06:16;2.42;;;2.22;;
823;SDS011;373;49.342;8.146;2023-02-03T05:08:43;3.70;;;2.47;;
823;SDS011;373;49.342;8.146;2023-02-03T05:11:10;2.40;;;2.30;;
823;SDS011;373;49.342;8.146;2023-02-03T05:13:38;2.75;;;2.45;;
823;SDS011;373;49.342;8.146;2023-02-03T05:16:05;5.13;;;2.30;;
823;SDS011;373;49.342;8.146;2023-02-03T05:18:32;3.25;;;2.92;;
823;SDS011;373;49.342;8.146;2023-02-03T05:20:59;2.40;;;2.20;;
823;SDS011;373;49.342;8.146;2023-02-03T05:23:27;3.03;;;2.20;;
823;SDS011;373;49.342;8.146;2023-02-03T05:25:53;2.50;;;2.00;;
823;SDS011;373;49.342;8.146;2023-02-03T05:28:21;3.80;;;2.38;;
823;SDS011;373;49.342;8.146;2023-02-03T05:30:49;2.95;;;2.47;;
823;SDS011;373;49.342;8.146;2023-02-03T05:33:16;2.55;;;2.13;;
823;SDS011;373;49.342;8.146;2023-02-03T05:35:43;2.75;;;2.17;;
823;SDS011;373;49.342;8.146;2023-02-03T05:38:10;2.08;;;1.98;;
823;SDS011;373;49.342;8.146;2023-02-03T05:40:37;3.22;;;2.25;;
823;SDS011;373;49.342;8.146;2023-02-03T05:43:22;2.72;;;2.03;;
823;SDS011;373;49.342;8.146;2023-02-03T05:45:50;3.30;;;2.15;;
823;SDS011;373;49.342;8.146;2023-02-03T05:48:17;1.65;;;1.55;;
823;SDS011;373;49.342;8.146;2023-02-03T05:50:44;2.65;;;2.00;;
823;SDS011;373;49.342;8.146;2023-02-03T05:53:11;1.55;;;1.42;;
823;SDS011;373;49.342;8.146;2023-02-03T05:55:38;2.88;;;1.88;;
823;SDS011;373;49.342;8.146;2023-02-03T05:58:05;1.77;;;1.33;;
823;SDS011;373;49.342;8.146;2023-02-03T06:00:32;3.00;;;1.67;;
823;SDS011;373;49.342;8.146;2023-02-03T06:03:01;2.20;;;1.55;;
823;SDS011;373;49.342;8.146;2023-02-03T06:05:29;1.83;;;1.52;;
823;SDS011;373;49.342;8.146;2023-02-03T06:07:57;2.05;;;1.60;;
823;SDS011;373;49.342;8.146;2023-02-03T06:10:24;4.22;;;1.60;;
823;SDS011;373;49.342;8.146;2023-02-03T06:12:54;1.63;;;1.52;;
823;SDS011;373;49.342;8.146;2023-02-03T06:15:25;1.70;;;1.60;;
823;SDS011;373;49.342;8.146;2023-02-03T06:17:52;1.85;;;1.67;;
823;SDS011;373;49.342;8.146;2023-02-03T06:20:20;2.20;;;1.42;;
823;SDS011;373;49.342;8.146;2023-02-03T06:23:19;3.63;;;1.70;;
823;SDS011;373;49.342;8.146;2023-02-03T06:25:49;1.70;;;1.60;;
823;SDS011;373;49.342;8.146;2023-02-03T06:28:17;3.60;;;1.83;;
823;SDS011;373;49.342;8.146;2023-02-03T06:30:44;1.52;;;1.42;;
823;SDS011;373;49.342;8.146;2023-02-03T06:33:14;2.05;;;1.65;;
823;SDS011;373;49.342;8.146;2023-02-03T06:35:42;1.58;;;1.48;;
823;SDS011;373;49.342;8.146;2023-02-03T06:38:09;2.72;;;1.30;;
823;SDS011;373;49.342;8.146;2023-02-03T06:40:37;1.30;;;1.20;;
823;SDS011;373;49.342;8.146;2023-02-03T06:43:04;1.65;;;1.55;;
823;SDS011;373;49.342;8.146;2023-02-03T06:45:31;1.55;;;1.40;;
823;SDS011;373;49.342;8.146;2023-02-03T06:47:58;1.30;;;1.20;;
823;SDS011;373;49.342;8.146;2023-02-03T06:50:25;3.38;;;1.80;;
823;SDS011;373;49.342;8.146;2023-02-03T06:52:54;1.15;;;1.10;;
823;SDS011;373;49.342;8.146;2023-02-03T06:55:21;1.25;;;1.05;;
823;SDS011;373;49.342;8.146;2023-02-03T06:57:48;1.50;;;1.33;;
823;SDS011;373;49.342;8.146;2023-02-03T07:00:15;1.00;;;1.00;;
823;SDS011;373;49.342;8.146;2023-02-03T07:02:43;4.15;;;2.05;;
823;SDS011;373;49.342;8.146;2023-02-03T07:05:11;0.90;;;0.90;;
823;SDS011;373;49.342;8.146;2023-02-03T07:07:38;1.13;;;0.98;;
823;SDS011;373;49.342;8.146;2023-02-03T07:10:06;1.13;;;1.02;;
823;SDS011;373;49.342;8.146;2023-02-03T07:12:34;1.02;;;1.02;;
823;SDS011;373;49.342;8.146;2023-02-03T07:15:01;1.33;;;1.00;;
823;SDS011;373;49.342;8.146;2023-02-03T07:17:29;0.98;;;0.95;;
823;SDS011;373;49.342;8.146;2023-02-03T07:19:56;1.65;;;0.85;;
823;SDS011;373;49.342;8.146;2023-02-03T07:22:23;1.00;;;0.90;;
823;SDS011;373;49.342;8.146;2023-02-03T07:24:50;1.90;;;1.15;;
823;SDS011;373;49.342;8.146;2023-02-03T07:27:18;1.17;;;1.08;;
823;SDS011;373;49.342;8.146;2023-02-03T07:29:45;1.65;;;0.80;;
823;SDS011;373;49.342;8.146;2023-02-03T07:32:12;1.58;;;0.93;;
823;SDS011;373;49.342;8.146;2023-02-03T07:34:39;0.93;;;0.82;;
823;SDS011;373;49.342;8.146;2023-02-03T07:37:06;1.40;;;1.30;;
823;SDS011;373;49.342;8.146;2023-02-03T07:39:33;1.23;;;1.13;;
823;SDS011;373;49.342;8.146;2023-02-03T07:42:00;0.90;;;0.88;;
823;SDS011;373;49.342;8.146;2023-02-03T07:44:30;1.17;;;1.00;;
823;SDS011;373;49.342;8.146;2023-02-03T07:46:57;1.98;;;1.27;;
823;SDS011;373;49.342;8.146;2023-02-03T07:49:24;1.55;;;1.42;;
823;SDS011;373;49.342;8.146;2023-02-03T07:51:51;1.10;;;1.00;;
823;SDS011;373;49.342;8.146;2023-02-03T07:54:18;1.65;;;1.30;;
823;SDS011;373;49.342;8.146;2023-02-03T07:56:45;1.48;;;1.27;;
823;SDS011;373;49.342;8.146;2023-02-03T07:59:12;1.48;;;1.05;;
823;SDS011;373;49.342;8.146;2023-02-03T08:01:40;0.95;;;0.90;;
823;SDS011;373;49.342;8.146;2023-02-03T08:04:11;1.42;;;1.15;;
823;SDS011;373;49.342;8.146;2023-02-03T08:06:40;1.10;;;1.00;;
823;SDS011;373;49.342;8.146;2023-02-03T08:09:08;2.60;;;1.88;;
823;SDS011;373;49.342;8.146;2023-02-03T08:11:35;1.42;;;1.00;;
823;SDS011;373;49.342;8.146;2023-02-03T08:14:02;1.23;;;1.08;;
823;SDS011;373;49.342;8.146;2023-02-03T08:16:29;1.40;;;1.30;;
823;SDS011;373;49.342;8.146;2023-02-03T08:18:57;1.75;;;1.52;;
823;SDS011;373;49.342;8.146;2023-02-03T08:21:27;1.08;;;0.90;;
823;SDS011;373;49.342;8.146;2023-02-03T08:23:54;1.85;;;1.38;;
823;SDS011;373;49.342;8.146;2023-02-03T08:26:21;1.40;;;1.30;;
823;SDS011;373;49.342;8.146;2023-02-03T08:28:48;1.70;;;1.13;;
823;SDS011;373;49.342;8.146;2023-02-03T08:31:15;1.20;;;1.10;;
823;SDS011;373;49.342;8.146;2023-02-03T08:33:43;1.77;;;0.93;;
823;SDS011;373;49.342;8.146;2023-02-03T08:36:11;1.20;;;1.10;;
823;SDS011;373;49.342;8.146;2023-02-03T08:38:39;0.88;;;0.80;;
823;SDS011;373;49.342;8.146;2023-02-03T08:41:07;1.45;;;1.35;;
823;SDS011;373;49.342;8.146;2023-02-03T08:43:36;1.00;;;1.00;;
823;SDS011;373;49.342;8.146;2023-02-03T08:46:03;1.23;;;0.90;;
823;SDS011;373;49.342;8.146;2023-02-03T08:48:31;0.85;;;0.85;;
823;SDS011;373;49.342;8.146;2023-02-03T08:50:58;1.40;;;1.30;;
823;SDS011;373;49.342;8.146;2023-02-03T08:53:27;1.00;;;0.60;;
823;SDS011;373;49.342;8.146;2023-02-03T08:55:54;1.42;;;1.00;;
823;SDS011;373;49.342;8.146;2023-02-03T08:58:21;1.27;;;1.00;;
823;SDS011;373;49.342;8.146;2023-02-03T09:00:48;0.55;;;0.55;;
823;SDS011;373;49.342;8.146;2023-02-03T09:03:17;1.00;;;0.95;;
823;SDS011;373;49.342;8.146;2023-02-03T09:05:44;0.93;;;0.93;;
823;SDS011;373;49.342;8.146;2023-02-03T09:08:11;0.98;;;0.90;;
823;SDS011;373;49.342;8.146;2023-02-03T09:10:40;1.10;;;0.90;;
823;SDS011;373;49.342;8.146;2023-02-03T09:13:07;1.23;;;0.98;;
823;SDS011;373;49.342;8.146;2023-02-03T09:15:34;1.10;;;0.70;;
823;SDS011;373;49.342;8.146;2023-02-03T09:18:02;0.70;;;0.70;;
823;SDS011;373;49.342;8.146;2023-02-03T09:20:29;0.90;;;0.90;;
823;SDS011;373;49.342;8.146;2023-02-03T09:22:56;1.92;;;1.15;;
823;SDS011;373;49.342;8.146;2023-02-03T09:25:24;1.58;;;0.98;;
823;SDS011;373;49.342;8.146;2023-02-03T09:27:53;1.55;;;0.90;;
823;SDS011;373;49.342;8.146;2023-02-03T09:30:20;1.00;;;1.00;;
823;SDS011;373;49.342;8.146;2023-02-03T09:32:47;0.85;;;0.82;;
823;SDS011;373;49.342;8.146;2023-02-03T09:35:18;1.13;;;0.90;;
823;SDS011;373;49.342;8.146;2023-02-03T09:37:45;0.70;;;0.70;;
823;SDS011;373;49.342;8.146;2023-02-03T09:40:16;0.80;;;0.80;;
823;SDS011;373;49.342;8.146;2023-02-03T09:43:00;0.90;;;0.82;;
823;SDS011;373;49.342;8.146;2023-02-03T09:45:32;1.58;;;0.93;;
823;SDS011;373;49.342;8.146;2023-02-03T09:48:01;0.88;;;0.73;;
823;SDS011;373;49.342;8.146;2023-02-03T09:50:32;0.80;;;0.80;;
823;SDS011;373;49.342;8.146;2023-02-03T09:53:03;0.95;;;0.88;;
823;SDS011;373;49.342;8.146;2023-02-03T09:55:37;1.92;;;1.38;;
823;SDS011;373;49.342;8.146;2023-02-03T12:06:34;1.00;;;0.98;;
823;SDS011;373;49.342;8.146;2023-02-03T12:09:17;0.63;;;0.63;;
823;SDS011;373;49.342;8.146;2023-02-03T12:11:59;0.40;;;0.40;;
823;SDS011;373;49.342;8.146;2023-02-03T12:14:54;0.73;;;0.40;;
823;SDS011;373;49.342;8.146;2023-02-03T12:17:42;0.55;;;0.38;;
823;SDS011;373;49.342;8.146;2023-02-03T12:20:31;0.30;;;0.30;;
823;SDS011;373;49.342;8.146;2023-02-03T12:23:14;0.57;;;0.57;;
823;SDS011;373;49.342;8.146;2023-02-03T12:25:53;0.30;;;0.30;;
823;SDS011;373;49.342;8.146;2023-02-03T12:28:30;0.50;;;0.50;;
823;SDS011;373;49.342;8.146;2023-02-03T12:31:10;0.50;;;0.30;;
823;SDS011;373;49.342;8.146;2023-02-03T12:33:44;0.30;;;0.30;;
823;SDS011;373;49.342;8.146;2023-02-03T12:36:17;0.40;;;0.40;;
823;SDS011;373;49.342;8.146;2023-02-03T12:38:52;0.30;;;0.30;;
823;SDS011;373;49.342;8.146;2023-02-03T12:41:25;0.32;;;0.25;;
823;SDS011;373;49.342;8.146;2023-02-03T12:43:57;0.35;;;0.35;;
823;SDS011;373;49.342;8.146;2023-02-03T12:46:28;0.30;;;0.30;;
823;SDS011;373;49.342;8.146;2023-02-03T12:48:58;0.32;;;0.30;;
823;SDS011;373;49.342;8.146;2023-02-03T12:51:30;0.20;;;0.17;;
823;SDS011;373;49.342;8.146;2023-02-03T12:54:06;0.52;;;0.22;;
823;SDS011;373;49.342;8.146;2023-02-03T12:56:44;0.95;;;0.95;;
823;SDS011;373;49.342;8.146;2023-02-03T12:59:17;0.38;;;0.38;;
823;SDS011;373;49.342;8.146;2023-02-03T13:01:48;0.25;;;0.25;;
823;SDS011;373;49.342;8.146;2023-02-03T13:04:22;0.35;;;0.20;;
823;SDS011;373;49.342;8.146;2023-02-03T13:06:59;0.22;;;0.20;;
823;SDS011;373;49.342;8.146;2023-02-03T13:09:35;0.20;;;0.20;;
823;SDS011;373;49.342;8.146;2023-02-03T13:12:05;0.10;;;0.10;;
823;SDS011;373;49.342;8.146;2023-02-03T13:14:37;0.20;;;0.20;;
823;SDS011;373;49.342;8.146;2023-02-03T13:17:10;0.20;;;0.20;;
823;SDS011;373;49.342;8.146;2023-02-03T13:19:44;0.30;;;0.30;;
823;SDS011;373;49.342;8.146;2023-02-03T13:22:14;0.15;;;0.10;;
823;SDS011;373;49.342;8.146;2023-02-03T13:24:44;0.25;;;0.20;;
823;SDS011;373;49.342;8.146;2023-02-03T13:27:20;0.22;;;0.22;;
823;SDS011;373;49.342;8.146;2023-02-03T13:30:10;0.20;;;0.20;;
823;SDS011;373;49.342;8.146;2023-02-03T13:33:01;0.20;;;0.20;;
823;SDS011;373;49.342;8.146;2023-02-03T13:35:53;0.47;;;0.20;;
823;SDS011;373;49.342;8.146;2023-02-03T13:38:33;0.10;;;0.10;;
823;SDS011;373;49.342;8.146;2023-02-03T13:41:16;0.22;;;0.20;;
823;SDS011;373;49.342;8.146;2023-02-03T13:43:48;0.10;;;0.10;;
823;SDS011;373;49.342;8.146;2023-02-03T13:46:18;1.65;;;0.30;;
823;SDS011;373;49.342;8.146;2023-02-03T13:48:48;0.63;;;0.25;;
823;SDS011;373;49.342;8.146;2023-02-03T13:51:19;0.20;;;0.20;;
823;SDS011;373;49.342;8.146;2023-02-03T13:53:48;0.20;;;0.20;;
823;SDS011;373;49.342;8.146;2023-02-03T13:56:19;0.35;;;0.20;;
823;SDS011;373;49.342;8.146;2023-02-03T13:58:58;0.85;;;0.40;;
823;SDS011;373;49.342;8.146;2023-02-03T14:01:31;0.55;;;0.30;;
823;SDS011;373;49.342;8.146;2023-02-03T14:04:02;0.20;;;0.20;;
823;SDS011;373;49.342;8.146;2023-02-03T14:09:36;0.20;;;0.20;;
823;SDS011;373;49.342;8.146;2023-02-03T14:12:18;0.50;;;0.43;;
823;SDS011;373;49.342;8.146;2023-02-03T14:14:57;0.30;;;0.25;;
823;SDS011;373;49.342;8.146;2023-02-03T14:20:48;0.52;;;0.30;;
823;SDS011;373;49.342;8.146;2023-02-03T14:23:48;0.57;;;0.57;;
823;SDS011;373;49.342;8.146;2023-02-03T14:26:22;0.20;;;0.20;;
823;SDS011;373;49.342;8.146;2023-02-03T14:29:04;0.13;;;0.13;;
823;SDS011;373;49.342;8.146;2023-02-03T14:31:39;0.38;;;0.38;;
823;SDS011;373;49.342;8.146;2023-02-03T14:34:34;0.30;;;0.30;;
823;SDS011;373;49.342;8.146;2023-02-03T14:37:14;1.38;;;0.50;;
823;SDS011;373;49.342;8.146;2023-02-03T14:40:07;0.45;;;0.40;;
823;SDS011;373;49.342;8.146;2023-02-03T14:42:52;0.40;;;0.40;;
823;SDS011;373;49.342;8.146;2023-02-03T14:45:48;0.40;;;0.40;;
823;SDS011;373;49.342;8.146;2023-02-03T14:48:44;0.52;;;0.47;;
823;SDS011;373;49.342;8.146;2023-02-03T14:51:22;0.57;;;0.32;;
823;SDS011;373;49.342;8.146;2023-02-03T14:57:04;0.32;;;0.25;;
823;SDS011;373;49.342;8.146;2023-02-03T14:59:44;0.30;;;0.17;;
823;SDS011;373;49.342;8.146;2023-02-03T15:02:16;0.20;;;0.20;;
823;SDS011;373;49.342;8.146;2023-02-03T15:04:47;0.30;;;0.30;;
823;SDS011;373;49.342;8.146;2023-02-03T15:10:12;0.30;;;0.30;;
823;SDS011;373;49.342;8.146;2023-02-03T15:12:45;0.40;;;0.40;;
823;SDS011;373;49.342;8.146;2023-02-03T15:15:17;1.35;;;0.30;;
823;SDS011;373;49.342;8.146;2023-02-03T15:17:48;1.15;;;0.40;;
823;SDS011;373;49.342;8.146;2023-02-03T15:20:23;0.40;;;0.40;;
823;SDS011;373;49.342;8.146;2023-02-03T15:22:57;0.30;;;0.30;;
823;SDS011;373;49.342;8.146;2023-02-03T15:25:24;0.38;;;0.20;;
823;SDS011;373;49.342;8.146;2023-02-03T15:27:52;0.43;;;0.40;;
823;SDS011;373;49.342;8.146;2023-02-03T15:30:20;0.40;;;0.40;;
823;SDS011;373;49.342;8.146;2023-02-03T15:32:56;0.35;;;0.35;;
823;SDS011;373;49.342;8.146;2023-02-03T15:35:28;0.50;;;0.30;;
823;SDS011;373;49.342;8.146;2023-02-03T15:37:59;0.35;;;0.35;;
823;SDS011;373;49.342;8.146;2023-02-03T15:40:31;0.30;;;0.30;;
823;SDS011;373;49.342;8.146;2023-02-03T15:43:06;0.30;;;0.30;;
823;SDS011;373;49.342;8.146;2023-02-03T15:45:37;0.30;;;0.30;;
823;SDS011;373;49.342;8.146;2023-02-03T15:48:13;0.30;;;0.30;;
823;SDS011;373;49.342;8.146;2023-02-03T15:50:44;0.40;;;0.40;;
823;SDS011;373;49.342;8.146;2023-02-03T15:53:17;0.65;;;0.63;;
823;SDS011;373;49.342;8.146;2023-02-03T15:55:48;0.30;;;0.30;;
823;SDS011;373;49.342;8.146;2023-02-03T15:58:19;0.30;;;0.30;;
823;SDS011;373;49.342;8.146;2023-02-03T16:00:49;0.30;;;0.30;;
823;SDS011;373;49.342;8.146;2023-02-03T16:03:20;0.22;;;0.20;;
823;SDS011;373;49.342;8.146;2023-02-03T16:05:53;0.43;;;0.43;;
823;SDS011;373;49.342;8.146;2023-02-03T16:08:24;0.30;;;0.30;;
823;SDS011;373;49.342;8.146;2023-02-03T16:10:59;0.60;;;0.60;;
823;SDS011;373;49.342;8.146;2023-02-03T16:13:27;0.40;;;0.40;;
823;SDS011;373;49.342;8.146;2023-02-03T16:16:00;0.47;;;0.40;;
823;SDS011;373;49.342;8.146;2023-02-03T16:18:34;0.73;;;0.40;;
823;SDS011;373;49.342;8.146;2023-02-03T16:21:02;0.43;;;0.43;;
823;SDS011;373;49.342;8.146;2023-02-03T16:23:30;0.40;;;0.40;;
823;SDS011;373;49.342;8.146;2023-02-03T16:26:01;0.20;;;0.20;;
823;SDS011;373;49.342;8.146;2023-02-03T16:28:32;0.32;;;0.30;;
823;SDS011;373;49.342;8.146;2023-02-03T16:31:17;0.38;;;0.38;;
823;SDS011;373;49.342;8.146;2023-02-03T16:34:11;0.20;;;0.20;;
823;SDS011;373;49.342;8.146;2023-02-03T16:36:57;0.30;;;0.30;;
823;SDS011;373;49.342;8.146;2023-02-03T16:39:42;0.32;;;0.30;;
823;SDS011;373;49.342;8.146;2023-02-03T16:42:28;0.32;;;0.32;;
823;SDS011;373;49.342;8.146;2023-02-03T16:45:20;0.40;;;0.40;;
823;SDS011;373;49.342;8.146;2023-02-03T16:48:05;0.35;;;0.30;;
823;SDS011;373;49.342;8.146;2023-02-03T16:50:53;0.50;;;0.47;;
823;SDS011;373;49.342;8.146;2023-02-03T16:53:21;0.43;;;0.43;;
823;SDS011;373;49.342;8.146;2023-02-03T16:55:50;0.80;;;0.70;;
823;SDS011;373;49.342;8.146;2023-02-03T16:58:18;0.40;;;0.40;;
823;SDS011;373;49.342;8.146;2023-02-03T17:00:47;0.40;;;0.40;;
823;SDS011;373;49.342;8.146;2023-02-03T17:03:16;0.50;;;0.50;;
823;SDS011;373;49.342;8.146;2023-02-03T17:05:45;0.57;;;0.47;;
823;SDS011;373;49.342;8.146;2023-02-03T17:08:14;0.30;;;0.20;;
823;SDS011;373;49.342;8.146;2023-02-03T17:10:43;1.83;;;0.40;;
823;SDS011;373;49.342;8.146;2023-02-03T17:13:12;0.88;;;0.47;;
823;SDS011;373;49.342;8.146;2023-02-03T17:15:40;0.38;;;0.38;;
823;SDS011;373;49.342;8.146;2023-02-03T17:18:08;0.40;;;0.40;;
823;SDS011;373;49.342;8.146;2023-02-03T17:20:35;0.60;;;0.57;;
823;SDS011;373;49.342;8.146;2023-02-03T17:23:02;0.45;;;0.20;;
823;SDS011;373;49.342;8.146;2023-02-03T17:25:32;0.40;;;0.40;;
823;SDS011;373;49.342;8.146;2023-02-03T17:28:01;0.50;;;0.50;;
823;SDS011;373;49.342;8.146;2023-02-03T17:30:28;3.22;;;2.92;;
823;SDS011;373;49.342;8.146;2023-02-03T17:32:58;1.25;;;1.10;;
823;SDS011;373;49.342;8.146;2023-02-03T17:35:26;0.57;;;0.57;;
823;SDS011;373;49.342;8.146;2023-02-03T17:37:54;0.50;;;0.50;;
823;SDS011;373;49.342;8.146;2023-02-03T17:40:21;0.40;;;0.40;;
823;SDS011;373;49.342;8.146;2023-02-03T17:42:49;0.40;;;0.40;;
823;SDS011;373;49.342;8.146;2023-02-03T17:45:16;0.30;;;0.30;;
823;SDS011;373;49.342;8.146;2023-02-03T17:47:43;0.45;;;0.45;;
823;SDS011;373;49.342;8.146;2023-02-03T17:50:12;0.40;;;0.40;;
823;SDS011;373;49.342;8.146;2023-02-03T17:52:42;0.77;;;0.77;;
823;SDS011;373;49.342;8.146;2023-02-03T17:55:09;0.43;;;0.43;;
823;SDS011;373;49.342;8.146;2023-02-03T17:57:36;0.40;;;0.40;;
823;SDS011;373;49.342;8.146;2023-02-03T18:00:05;0.50;;;0.50;;
823;SDS011;373;49.342;8.146;2023-02-03T18:02:37;0.30;;;0.30;;
823;SDS011;373;49.342;8.146;2023-02-03T18:05:05;0.88;;;0.60;;
823;SDS011;373;49.342;8.146;2023-02-03T18:07:32;0.70;;;0.70;;
823;SDS011;373;49.342;8.146;2023-02-03T18:09:59;0.65;;;0.65;;
823;SDS011;373;49.342;8.146;2023-02-03T18:12:26;0.38;;;0.32;;
823;SDS011;373;49.342;8.146;2023-02-03T18:14:54;0.40;;;0.40;;
823;SDS011;373;49.342;8.146;2023-02-03T18:17:22;0.60;;;0.60;;
823;SDS011;373;49.342;8.146;2023-02-03T18:19:49;0.40;;;0.40;;
823;SDS011;373;49.342;8.146;2023-02-03T18:22:17;1.75;;;1.20;;
823;SDS011;373;49.342;8.146;2023-02-03T18:24:45;0.60;;;0.60;;
823;SDS011;373;49.342;8.146;2023-02-03T18:27:15;0.65;;;0.65;;
823;SDS011;373;49.342;8.146;2023-02-03T18:29:43;0.55;;;0.50;;
823;SDS011;373;49.342;8.146;2023-02-03T18:32:12;0.63;;;0.63;;
823;SDS011;373;49.342;8.146;2023-02-03T18:34:41;1.30;;;0.75;;
823;SDS011;373;49.342;8.146;2023-02-03T18:37:08;0.75;;;0.75;;